Time;durP1;ratioP1;P1;durP2;ratioP2;P2;SDS_P1;SDS_P2;PMS_P1;PMS_P2;Temp;Humidity;BMP_temperature;BMP_pressure;BME280_temperature;BME280_humidity;BME280_pressure;Samples;Min_cycle;Max_cycle;Signal;HPM_P1;HPM_P2
2022/09/14 00:01:42;;;;;;;;;9.50;9.00;;;26.49;100859.00;;;;117185;1192;24807;-64
2022/09/14 00:04:17;;;;;;;;;12.75;11.25;;;26.48;100859.61;;;;117383;1191;25296;-63
2022/09/14 00:06:46;;;;;;;;;13.25;12.00;;;26.50;100857.55;;;;117156;1192;24880;-64
2022/09/14 00:09:18;;;;;;;;;8.33;7.33;;;26.50;100854.95;;;;117195;1191;25149;-63
2022/09/14 00:11:47;;;;;;;;;10.00;10.00;;;26.49;100851.43;;;;117162;1191;25419;-63
2022/09/14 00:14:15;;;;;;;;;12.25;11.75;;;26.48;100851.69;;;;117076;1192;24848;-63
2022/09/14 00:16:44;;;;;;;;;13.75;12.00;;;26.47;100853.09;;;;117090;1191;26381;-62
2022/09/14 00:19:23;;;;;;;;;8.33;8.33;;;26.45;100848.41;;;;117201;1192;25853;-64
2022/09/14 00:21:53;;;;;;;;;9.00;9.00;;;26.47;100848.85;;;;117180;1191;25214;-64
2022/09/14 00:24:23;;;;;;;;;13.25;9.75;;;26.46;100841.89;;;;117380;1191;25048;-65
2022/09/14 00:26:52;;;;;;;;;9.00;9.00;;;26.47;100838.41;;;;117125;1191;25084;-63
2022/09/14 00:29:20;;;;;;;;;10.25;10.25;;;26.46;100834.51;;;;117185;1191;25569;-64
2022/09/14 00:31:49;;;;;;;;;12.00;11.00;;;26.46;100830.34;;;;117172;1191;25092;-63
2022/09/14 00:34:18;;;;;;;;;9.25;8.25;;;26.44;100824.47;;;;117187;1191;25388;-62
2022/09/14 00:36:49;;;;;;;;;9.00;9.00;;;26.44;100821.56;;;;117108;1191;24846;-63
2022/09/14 00:39:22;;;;;;;;;12.33;11.00;;;26.45;100825.61;;;;117187;1191;24707;-63
2022/09/14 00:41:52;;;;;;;;;11.00;8.33;;;26.44;100829.55;;;;117109;1192;25473;-64
2022/09/14 00:44:23;;;;;;;;;9.00;8.50;;;26.45;100830.16;;;;117389;1189;25593;-63
2022/09/14 00:46:55;;;;;;;;;11.75;10.00;;;26.43;100827.05;;;;117184;1191;25467;-62
2022/09/14 00:49:39;;;;;;;;;9.75;7.50;;;26.42;100827.77;;;;117187;1192;25085;-63
2022/09/14 00:52:18;;;;;;;;;13.25;10.25;;;26.41;100828.47;;;;117138;1193;25146;-63
2022/09/14 00:54:55;;;;;;;;;9.50;9.50;;;26.42;100824.71;;;;117175;1191;25243;-63
2022/09/14 00:57:25;;;;;;;;;9.75;9.00;;;26.44;100821.79;;;;117119;1191;25673;-63
2022/09/14 00:59:54;;;;;;;;;10.25;9.00;;;26.41;100819.79;;;;117040;1193;25173;-63
2022/09/14 01:02:25;;;;;;;;;10.75;8.50;;;26.41;100820.55;;;;117032;1193;25419;-63
2022/09/14 01:04:54;;;;;;;;;8.00;8.00;;;26.41;100821.95;;;;117111;1193;24888;-64
2022/09/14 01:07:44;;;;;;;;;14.25;8.75;;;26.40;100821.05;;;;117102;1194;24690;-62
2022/09/14 01:10:15;;;;;;;;;9.75;9.75;;;26.43;100821.52;;;;117103;1193;25116;-62
2022/09/14 01:13:37;;;;;;;;;11.50;11.25;;;26.39;100827.82;;;;117073;1191;25381;-62
2022/09/14 01:16:24;;;;;;;;;11.33;5.67;;;26.48;100834.81;;;;116857;1196;25148;-61
2022/09/14 01:18:57;;;;;;;;;12.00;9.75;;;26.50;100834.09;;;;117158;1193;24837;-62
2022/09/14 01:21:27;;;;;;;;;8.67;8.67;;;26.47;100838.09;;;;117090;1193;25149;-63
2022/09/14 01:24:18;;;;;;;;;10.67;10.00;;;26.44;100834.36;;;;117102;1192;25030;-62
2022/09/14 01:26:58;;;;;;;;;14.25;10.25;;;26.45;100833.60;;;;117128;1193;25521;-61
2022/09/14 01:29:56;;;;;;;;;9.50;9.00;;;26.42;100836.80;;;;117083;1193;25259;-62
2022/09/14 01:32:31;;;;;;;;;9.50;8.75;;;26.45;100835.13;;;;117069;1192;25049;-62
2022/09/14 01:35:16;;;;;;;;;10.33;10.33;;;26.44;100833.28;;;;117053;1193;25290;-62
2022/09/14 01:37:51;;;;;;;;;12.25;9.75;;;26.46;100830.27;;;;117099;1193;25392;-61
2022/09/14 01:40:26;;;;;;;;;10.67;7.33;;;26.42;100828.55;;;;117088;1192;25667;-62
2022/09/14 01:43:19;;;;;;;;;9.00;8.67;;;26.41;100823.60;;;;117015;1193;24923;-62
2022/09/14 01:45:52;;;;;;;;;9.00;8.33;;;26.46;100819.88;;;;117058;1193;25291;-62
2022/09/14 01:48:30;;;;;;;;;11.00;9.00;;;26.46;100821.58;;;;117115;1192;25307;-62
2022/09/14 01:51:01;;;;;;;;;6.33;6.33;;;26.43;100825.48;;;;117122;1193;25676;-62
2022/09/14 01:53:36;;;;;;;;;13.00;8.00;;;26.41;100825.02;;;;117137;1193;24836;-62
2022/09/14 01:56:22;;;;;;;;;8.00;7.67;;;26.41;100823.35;;;;117110;1193;25536;-64
2022/09/14 01:59:00;;;;;;;;;11.75;10.50;;;26.41;100823.93;;;;117026;1193;25035;-62
2022/09/14 02:01:36;;;;;;;;;10.67;10.33;;;26.39;100820.59;;;;116998;1193;25576;-62
2022/09/14 02:04:08;;;;;;;;;9.25;8.00;;;26.40;100820.34;;;;117046;1193;25203;-62
2022/09/14 02:06:42;;;;;;;;;10.25;8.75;;;26.38;100816.80;;;;117037;1193;25156;-62
2022/09/14 02:09:15;;;;;;;;;8.50;7.75;;;26.39;100813.23;;;;117060;1193;25406;-63
2022/09/14 02:11:43;;;;;;;;;13.25;9.50;;;26.36;100807.46;;;;117054;1192;25005;-63
2022/09/14 02:14:12;;;;;;;;;11.67;7.67;;;26.36;100806.86;;;;117069;1193;25084;-64
2022/09/14 02:16:44;;;;;;;;;8.00;7.00;;;26.35;100810.73;;;;117161;1192;25086;-61
2022/09/14 02:19:13;;;;;;;;;16.00;9.00;;;26.34;100815.39;;;;117095;1191;25662;-62
2022/09/14 02:21:42;;;;;;;;;15.67;10.00;;;26.33;100819.77;;;;117110;1193;25047;-62
2022/09/14 02:24:11;;;;;;;;;12.33;9.00;;;26.31;100817.16;;;;117011;1193;24783;-62
2022/09/14 02:26:40;;;;;;;;;11.67;8.00;;;26.31;100815.89;;;;117115;1193;24859;-62
2022/09/14 02:29:08;;;;;;;;;13.33;10.33;;;26.28;100820.77;;;;117123;1192;25094;-62
2022/09/14 02:31:58;;;;;;;;;9.50;7.50;;;26.27;100821.34;;;;117069;1192;25670;-62
2022/09/14 02:35:17;;;;;;;;;9.00;8.00;;;26.31;100818.15;;;;117116;1193;25375;-62
2022/09/14 02:37:48;;;;;;;;;12.75;10.50;;;26.39;100818.98;;;;116930;1193;24922;-62
2022/09/14 02:40:40;;;;;;;;;10.00;9.00;;;26.34;100816.17;;;;117120;1192;25626;-63
2022/09/14 02:43:31;;;;;;;;;11.00;11.00;;;26.34;100810.40;;;;117139;1192;25559;-62
2022/09/14 02:46:05;;;;;;;;;10.00;9.67;;;26.32;100807.75;;;;117119;1193;25308;-60
2022/09/14 02:48:47;;;;;;;;;8.00;7.50;;;26.29;100809.23;;;;117125;1193;25461;-62
2022/09/14 02:51:54;;;;;;;;;9.75;8.75;;;26.26;100803.34;;;;117093;1191;24970;-64
2022/09/14 02:54:47;;;;;;;;;10.00;9.25;;;26.32;100798.49;;;;117104;1191;25696;-65
2022/09/14 02:57:15;;;;;;;;;11.00;8.00;;;26.31;100796.23;;;;117105;1192;25111;-61
2022/09/14 02:59:44;;;;;;;;;11.00;7.00;;;26.28;100794.27;;;;117045;1193;25623;-65
2022/09/14 03:02:12;;;;;;;;;8.50;7.25;;;26.26;100795.13;;;;117059;1192;25131;-64
2022/09/14 03:04:41;;;;;;;;;10.50;10.00;;;26.25;100791.24;;;;117089;1191;25720;-63
2022/09/14 03:07:09;;;;;;;;;9.75;8.75;;;26.23;100791.20;;;;117361;1191;25468;-64
2022/09/14 03:09:37;;;;;;;;;9.75;9.50;;;26.21;100786.55;;;;117022;1193;25799;-62
2022/09/14 03:12:06;;;;;;;;;12.00;7.00;;;26.20;100783.85;;;;117131;1191;25143;-64
2022/09/14 03:14:34;;;;;;;;;11.00;10.50;;;26.20;100783.79;;;;117114;1192;24902;-63
2022/09/14 03:17:03;;;;;;;;;10.50;8.75;;;26.20;100784.41;;;;117108;1191;24966;-64
2022/09/14 03:19:31;;;;;;;;;11.50;11.50;;;26.19;100784.65;;;;117125;1192;25192;-63
2022/09/14 03:22:00;;;;;;;;;14.25;11.00;;;26.17;100787.77;;;;117101;1191;25426;-64
2022/09/14 03:24:28;;;;;;;;;11.00;8.33;;;26.17;100790.75;;;;117174;1191;25628;-63
2022/09/14 03:26:56;;;;;;;;;9.50;8.75;;;26.17;100784.33;;;;117064;1192;24802;-63
2022/09/14 03:29:25;;;;;;;;;10.67;8.00;;;26.17;100781.77;;;;117136;1192;25373;-63
2022/09/14 03:31:54;;;;;;;;;15.33;11.00;;;26.18;100780.64;;;;117130;1192;24791;-65
2022/09/14 03:34:22;;;;;;;;;9.50;8.50;;;26.17;100785.96;;;;117175;1192;25168;-65
2022/09/14 03:36:50;;;;;;;;;10.00;5.75;;;26.17;100793.34;;;;117085;1191;24780;-65
2022/09/14 03:39:19;;;;;;;;;8.00;7.25;;;26.16;100796.19;;;;117131;1192;25425;-65
2022/09/14 03:41:47;;;;;;;;;7.50;7.50;;;26.15;100801.10;;;;117095;1192;25781;-65
2022/09/14 03:44:16;;;;;;;;;11.00;10.25;;;26.16;100810.34;;;;117119;1191;24736;-65
2022/09/14 03:46:44;;;;;;;;;12.00;10.25;;;26.16;100808.73;;;;117115;1192;25092;-65
2022/09/14 03:49:13;;;;;;;;;8.00;8.00;;;26.15;100806.73;;;;117208;1192;25268;-62
2022/09/14 03:51:41;;;;;;;;;10.50;10.50;;;26.15;100805.56;;;;117172;1192;25297;-64
2022/09/14 03:54:10;;;;;;;;;11.75;10.75;;;26.15;100805.27;;;;117084;1191;25383;-64
2022/09/14 03:56:39;;;;;;;;;9.50;9.50;;;26.13;100802.86;;;;117114;1192;24805;-64
2022/09/14 03:59:09;;;;;;;;;8.33;8.33;;;26.13;100806.10;;;;117113;1191;25231;-64
2022/09/14 04:01:37;;;;;;;;;13.75;9.50;;;26.15;100803.05;;;;117201;1191;25787;-66
2022/09/14 04:04:06;;;;;;;;;10.00;9.00;;;26.16;100807.46;;;;117096;1193;25082;-66
2022/09/14 04:06:35;;;;;;;;;7.67;7.33;;;26.15;100808.77;;;;117027;1193;25390;-66
2022/09/14 04:09:03;;;;;;;;;10.00;10.00;;;26.15;100807.48;;;;117051;1193;25170;-66
2022/09/14 04:11:33;;;;;;;;;9.00;6.00;;;26.14;100814.00;;;;117070;1191;25151;-66
2022/09/14 04:14:03;;;;;;;;;11.33;6.67;;;26.14;100815.79;;;;117089;1191;25641;-65
2022/09/14 04:16:31;;;;;;;;;11.00;10.00;;;26.15;100814.85;;;;117179;1191;25182;-66
2022/09/14 04:19:00;;;;;;;;;8.67;8.00;;;26.14;100812.48;;;;117087;1189;25508;-66
2022/09/14 04:21:29;;;;;;;;;14.00;9.75;;;26.14;100808.96;;;;117171;1192;24959;-66
2022/09/14 04:23:58;;;;;;;;;8.00;7.50;;;26.14;100811.64;;;;117100;1192;25575;-66
2022/09/14 04:26:44;;;;;;;;;9.00;9.00;;;26.17;100820.86;;;;117192;1192;24822;-67
2022/09/14 04:29:13;;;;;;;;;10.50;9.50;;;26.17;100823.32;;;;117409;1191;25143;-64
2022/09/14 04:31:42;;;;;;;;;6.00;6.00;;;26.18;100822.20;;;;117075;1191;24707;-64
2022/09/14 04:34:12;;;;;;;;;13.00;9.67;;;26.15;100824.13;;;;117034;1192;25491;-64
2022/09/14 04:36:41;;;;;;;;;9.25;8.50;;;26.15;100823.03;;;;117456;1190;24913;-65
2022/09/14 04:39:12;;;;;;;;;9.00;8.00;;;26.16;100819.56;;;;117090;1192;24917;-65
2022/09/14 04:41:40;;;;;;;;;10.00;8.00;;;26.18;100819.84;;;;117098;1192;25050;-63
2022/09/14 04:44:09;;;;;;;;;10.00;8.75;;;26.23;100824.27;;;;116967;1192;25156;-64
2022/09/14 04:46:40;;;;;;;;;8.00;8.00;;;26.16;100824.70;;;;117078;1192;25383;-62
2022/09/14 04:49:17;;;;;;;;;8.00;7.25;;;26.15;100823.12;;;;117012;1194;25040;-64
2022/09/14 04:51:46;;;;;;;;;10.75;10.00;;;26.18;100825.23;;;;117188;1191;24803;-63
2022/09/14 04:54:17;;;;;;;;;12.67;9.00;;;26.20;100829.19;;;;117148;1191;24894;-64
2022/09/14 04:56:45;;;;;;;;;8.50;7.25;;;26.18;100822.58;;;;117123;1191;24775;-63
2022/09/14 04:59:14;;;;;;;;;9.33;6.67;;;26.18;100823.63;;;;116967;1192;25386;-62
2022/09/14 05:01:46;;;;;;;;;9.00;7.00;;;26.18;100822.16;;;;117261;1190;25600;-62
2022/09/14 05:04:16;;;;;;;;;9.33;8.00;;;26.18;100822.88;;;;117089;1192;25739;-63
2022/09/14 05:06:44;;;;;;;;;8.67;7.67;;;26.19;100825.52;;;;117014;1193;25256;-64
2022/09/14 05:09:15;;;;;;;;;13.00;11.25;;;26.20;100830.30;;;;117155;1192;25600;-64
2022/09/14 05:11:44;;;;;;;;;12.00;11.00;;;26.20;100830.31;;;;117111;1192;25593;-65
2022/09/14 05:14:13;;;;;;;;;9.33;7.33;;;26.19;100823.52;;;;117057;1192;25147;-65
2022/09/14 05:16:42;;;;;;;;;12.00;10.25;;;26.18;100823.02;;;;117128;1192;25597;-67
2022/09/14 05:19:14;;;;;;;;;11.75;9.00;;;26.19;100821.13;;;;117140;1192;26108;-66
2022/09/14 05:21:43;;;;;;;;;11.67;10.00;;;26.18;100822.23;;;;117018;1193;24804;-65
2022/09/14 05:24:14;;;;;;;;;10.00;9.00;;;26.16;100823.34;;;;117151;1192;25462;-63
2022/09/14 05:26:44;;;;;;;;;9.00;7.33;;;26.18;100818.52;;;;117028;1193;25080;-58
2022/09/14 05:29:14;;;;;;;;;10.00;8.33;;;26.14;100816.56;;;;117140;1193;25518;-77
2022/09/14 05:31:44;;;;;;;;;12.75;10.00;;;26.10;100820.28;;;;117104;1193;25319;-81
2022/09/14 05:34:14;;;;;;;;;12.75;8.50;;;26.11;100823.98;;;;117044;1193;25317;-76
2022/09/14 05:36:42;;;;;;;;;15.50;11.50;;;26.12;100825.68;;;;117020;1193;25231;-78
2022/09/14 05:39:10;;;;;;;;;13.00;11.67;;;26.12;100827.24;;;;117059;1193;24992;-78
2022/09/14 05:41:39;;;;;;;;;8.00;8.00;;;26.11;100826.39;;;;117042;1193;25610;-80
2022/09/14 05:44:07;;;;;;;;;9.50;9.00;;;26.15;100832.27;;;;117096;1192;24939;-77
2022/09/14 05:46:36;;;;;;;;;3.00;3.00;;;26.18;100837.41;;;;116925;1192;25449;-78
2022/09/14 05:49:05;;;;;;;;;14.50;11.25;;;26.21;100840.89;;;;116968;1193;25393;-79
2022/09/14 05:51:33;;;;;;;;;11.50;8.50;;;26.23;100842.55;;;;116998;1193;25032;-77
2022/09/14 05:54:08;;;;;;;;;7.75;6.50;;;26.23;100849.39;;;;117156;1193;25219;-78
2022/09/14 05:56:36;;;;;;;;;10.00;10.00;;;26.24;100853.87;;;;117081;1192;25682;-82
2022/09/14 05:59:05;;;;;;;;;7.50;7.50;;;26.26;100858.29;;;;117113;1193;25220;-83
2022/09/14 06:01:34;;;;;;;;;12.00;9.75;;;26.27;100859.25;;;;117062;1193;24773;-82
2022/09/14 06:04:02;;;;;;;;;6.67;6.67;;;26.28;100857.95;;;;117047;1194;25407;-85
2022/09/14 06:06:32;;;;;;;;;10.67;9.67;;;26.29;100854.48;;;;117084;1191;25192;-84
2022/09/14 06:09:01;;;;;;;;;10.00;9.00;;;26.29;100855.36;;;;116985;1193;25239;-78
2022/09/14 06:11:32;;;;;;;;;9.50;9.00;;;26.30;100857.96;;;;116889;1193;25217;-79
2022/09/14 06:14:01;;;;;;;;;10.67;8.33;;;26.31;100861.30;;;;117032;1193;25653;-78
2022/09/14 06:16:29;;;;;;;;;10.67;8.33;;;26.34;100866.76;;;;117091;1193;25449;-79
2022/09/14 06:18:58;;;;;;;;;11.67;8.67;;;26.35;100864.58;;;;117005;1193;25393;-78
2022/09/14 06:21:31;;;;;;;;;10.00;9.25;;;26.34;100864.91;;;;117978;1192;25586;-79
2022/09/14 06:24:00;;;;;;;;;12.25;10.50;;;26.49;100866.75;;;;118523;1193;25532;-80
2022/09/14 06:26:29;;;;;;;;;12.33;9.67;;;26.76;100872.12;;;;117308;1193;25315;-79
2022/09/14 06:28:58;;;;;;;;;14.50;10.50;;;26.80;100877.71;;;;117121;1191;24803;-79
2022/09/14 06:31:26;;;;;;;;;12.50;8.75;;;26.73;100872.04;;;;117063;1193;24759;-77
2022/09/14 06:33:55;;;;;;;;;8.67;7.67;;;26.66;100872.77;;;;117148;1193;25200;-78
2022/09/14 06:36:25;;;;;;;;;11.67;10.67;;;26.61;100869.22;;;;117097;1193;26222;-78
2022/09/14 06:38:55;;;;;;;;;8.50;8.50;;;26.57;100869.92;;;;117053;1192;25694;-78
2022/09/14 06:41:29;;;;;;;;;8.00;8.00;;;26.53;100868.73;;;;117092;1191;25215;-77
2022/09/14 06:44:00;;;;;;;;;10.25;7.75;;;26.51;100868.77;;;;117110;1192;25514;-77
2022/09/14 06:46:31;;;;;;;;;11.00;9.00;;;26.50;100868.96;;;;117028;1193;25249;-75
2022/09/14 06:49:07;;;;;;;;;11.67;9.00;;;26.50;100869.12;;;;117104;1193;25151;-75
2022/09/14 06:51:38;;;;;;;;;10.00;10.00;;;26.49;100866.83;;;;117045;1192;25436;-78
2022/09/14 06:54:07;;;;;;;;;7.50;6.00;;;26.49;100866.35;;;;117079;1193;24900;-81
2022/09/14 06:56:38;;;;;;;;;8.00;8.00;;;26.48;100865.81;;;;117107;1191;25670;-77
2022/09/14 06:59:08;;;;;;;;;8.75;8.00;;;26.48;100868.52;;;;117031;1193;25504;-76
2022/09/14 07:01:37;;;;;;;;;13.00;8.00;;;26.48;100871.86;;;;117056;1193;25333;-77
2022/09/14 07:04:07;;;;;;;;;10.67;9.33;;;26.48;100866.05;;;;117078;1193;24898;-77
2022/09/14 07:06:47;;;;;;;;;12.33;10.00;;;26.49;100866.98;;;;117038;1193;24715;-77
2022/09/14 07:09:17;;;;;;;;;8.75;8.75;;;26.49;100871.29;;;;117063;1193;25620;-78
2022/09/14 07:11:46;;;;;;;;;11.00;10.50;;;26.51;100868.15;;;;117082;1193;25333;-77
2022/09/14 07:14:15;;;;;;;;;9.25;8.25;;;26.52;100867.39;;;;117042;1193;25673;-78
2022/09/14 07:16:43;;;;;;;;;6.50;6.50;;;26.52;100869.58;;;;117097;1192;24781;-78
2022/09/14 07:19:13;;;;;;;;;8.67;6.67;;;26.53;100870.19;;;;117178;1193;25614;-78
2022/09/14 07:21:44;;;;;;;;;10.50;10.00;;;26.53;100872.79;;;;116995;1193;25040;-78
2022/09/14 07:24:13;;;;;;;;;11.75;8.50;;;26.55;100876.66;;;;117055;1194;24754;-78
2022/09/14 07:26:42;;;;;;;;;9.25;9.25;;;26.55;100873.88;;;;117078;1193;25143;-78
2022/09/14 07:29:15;;;;;;;;;7.67;7.67;;;26.56;100868.90;;;;117099;1192;25546;-78
2022/09/14 07:31:49;;;;;;;;;10.25;5.50;;;26.57;100865.17;;;;117044;1193;25632;-77
2022/09/14 07:34:18;;;;;;;;;9.75;7.75;;;26.59;100863.84;;;;117107;1191;25589;-75
2022/09/14 07:36:47;;;;;;;;;10.00;7.33;;;26.60;100863.29;;;;117133;1192;25207;-78
2022/09/14 07:39:16;;;;;;;;;10.25;8.75;;;26.61;100862.23;;;;117054;1194;25657;-77
2022/09/14 07:41:45;;;;;;;;;8.50;8.25;;;26.61;100860.81;;;;117150;1192;25549;-78
2022/09/14 07:44:15;;;;;;;;;8.75;6.25;;;26.63;100859.95;;;;117064;1193;25225;-76
2022/09/14 07:46:45;;;;;;;;;13.00;11.00;;;26.63;100856.52;;;;117045;1193;25514;-76
2022/09/14 07:49:15;;;;;;;;;8.00;7.50;;;26.65;100861.10;;;;117054;1193;26483;-76
2022/09/14 07:51:45;;;;;;;;;8.75;7.00;;;26.65;100860.77;;;;117108;1193;25626;-76
2022/09/14 07:54:15;;;;;;;;;6.75;6.00;;;26.66;100855.48;;;;117064;1193;24930;-77
2022/09/14 07:56:44;;;;;;;;;5.50;5.50;;;26.66;100851.84;;;;117040;1193;25183;-76
2022/09/14 07:59:13;;;;;;;;;12.33;7.00;;;26.67;100848.21;;;;117101;1193;25421;-75
2022/09/14 08:02:04;;;;;;;;;9.67;8.00;;;26.70;100845.55;;;;117004;1193;25404;-76
2022/09/14 08:04:34;;;;;;;;;7.00;3.50;;;26.73;100843.17;;;;117083;1192;25356;-76
2022/09/14 08:07:04;;;;;;;;;8.67;6.67;;;26.74;100838.57;;;;117154;1193;25220;-76
2022/09/14 08:09:32;;;;;;;;;6.75;6.75;;;26.73;100835.01;;;;117052;1193;25620;-77
2022/09/14 08:12:02;;;;;;;;;10.00;6.00;;;26.73;100833.91;;;;117130;1193;25236;-76
2022/09/14 08:14:30;;;;;;;;;9.25;8.00;;;26.72;100827.66;;;;117053;1193;25179;-75
2022/09/14 08:16:59;;;;;;;;;10.00;7.75;;;26.73;100824.66;;;;117057;1193;24727;-75
2022/09/14 08:19:29;;;;;;;;;9.50;6.00;;;26.73;100823.22;;;;117150;1192;24775;-76
2022/09/14 08:21:57;;;;;;;;;13.50;9.00;;;26.73;100817.95;;;;117120;1193;25726;-76
2022/09/14 08:24:26;;;;;;;;;9.75;7.75;;;26.72;100823.45;;;;117085;1193;25150;-75
2022/09/14 08:26:54;;;;;;;;;8.25;8.00;;;26.73;100812.14;;;;117094;1192;25226;-76
2022/09/14 08:29:23;;;;;;;;;7.50;6.50;;;26.73;100809.27;;;;117030;1193;24837;-75
2022/09/14 08:31:51;;;;;;;;;4.25;4.25;;;26.73;100809.55;;;;117037;1193;25508;-76
2022/09/14 08:34:20;;;;;;;;;6.00;5.50;;;26.73;100811.16;;;;117089;1192;24737;-75
2022/09/14 08:36:49;;;;;;;;;8.00;7.50;;;26.74;100812.12;;;;117054;1193;25127;-75
2022/09/14 08:39:18;;;;;;;;;7.00;4.25;;;26.74;100808.52;;;;116945;1194;25299;-75
2022/09/14 08:41:56;;;;;;;;;9.25;7.75;;;26.76;100801.76;;;;117056;1193;24796;-77
2022/09/14 08:44:40;;;;;;;;;6.75;6.00;;;26.76;100803.48;;;;117082;1192;25023;-77
2022/09/14 08:47:17;;;;;;;;;6.50;6.50;;;26.76;100793.14;;;;117092;1192;25495;-76
2022/09/14 08:49:45;;;;;;;;;6.00;5.50;;;26.78;100793.13;;;;117059;1193;24836;-76
2022/09/14 08:52:20;;;;;;;;;6.67;6.67;;;26.79;100796.52;;;;117130;1191;24773;-74
2022/09/14 08:54:54;;;;;;;;;8.25;8.00;;;26.78;100791.95;;;;117134;1191;24853;-75
2022/09/14 08:57:26;;;;;;;;;3.50;3.25;;;26.78;100789.79;;;;117050;1193;25351;-75
2022/09/14 09:00:11;;;;;;;;;8.00;7.00;;;26.80;100784.08;;;;117118;1193;24782;-75
2022/09/14 09:02:47;;;;;;;;;8.00;8.00;;;26.82;100781.91;;;;117116;1193;25543;-76
2022/09/14 09:05:21;;;;;;;;;7.67;7.67;;;26.83;100777.34;;;;117040;1193;25104;-75
2022/09/14 09:08:19;;;;;;;;;8.50;7.50;;;26.83;100771.23;;;;117100;1193;25205;-75
2022/09/14 09:10:50;;;;;;;;;7.50;7.00;;;26.81;100773.99;;;;117121;1193;25716;-76
2022/09/14 09:13:22;;;;;;;;;6.33;6.33;;;26.83;100772.38;;;;117023;1193;25476;-75
2022/09/14 09:15:54;;;;;;;;;7.00;5.75;;;26.82;100772.30;;;;117073;1193;25306;-76
2022/09/14 09:18:31;;;;;;;;;5.00;5.00;;;26.82;100767.86;;;;117049;1193;24776;-75
2022/09/14 09:21:22;;;;;;;;;8.25;4.75;;;26.83;100772.09;;;;117133;1192;24911;-74
2022/09/14 09:23:54;;;;;;;;;11.25;7.50;;;26.84;100771.11;;;;117066;1193;25568;-76
2022/09/14 09:26:31;;;;;;;;;6.75;5.75;;;26.88;100776.86;;;;117052;1193;24778;-73
2022/09/14 09:29:01;;;;;;;;;7.25;5.75;;;26.88;100770.04;;;;117106;1193;24865;-75
2022/09/14 09:31:38;;;;;;;;;6.00;5.33;;;26.88;100765.47;;;;117142;1193;24857;-76
2022/09/14 09:34:10;;;;;;;;;5.00;4.25;;;26.89;100768.48;;;;117126;1193;25698;-74
2022/09/14 09:36:47;;;;;;;;;7.50;5.50;;;26.89;100769.95;;;;117082;1193;25585;-75
2022/09/14 09:39:16;;;;;;;;;7.50;7.50;;;26.89;100757.11;;;;117039;1193;24751;-74
2022/09/14 09:42:00;;;;;;;;;6.75;5.75;;;26.89;100751.52;;;;117072;1193;25391;-74
2022/09/14 09:44:28;;;;;;;;;5.00;4.75;;;26.88;100750.20;;;;117033;1192;25659;-74
2022/09/14 09:47:00;;;;;;;;;7.33;5.33;;;26.89;100748.54;;;;117120;1193;25181;-74
2022/09/14 09:49:31;;;;;;;;;6.25;5.50;;;26.88;100749.97;;;;117071;1193;25360;-74
2022/09/14 09:52:10;;;;;;;;;4.75;3.00;;;26.88;100748.17;;;;117072;1193;25517;-73
2022/09/14 09:54:49;;;;;;;;;5.50;4.50;;;26.88;100740.87;;;;117104;1193;25390;-74
2022/09/14 09:57:22;;;;;;;;;6.75;4.50;;;26.90;100751.86;;;;117535;1191;25600;-75
2022/09/14 09:59:50;;;;;;;;;10.25;7.50;;;27.00;100752.57;;;;117796;1193;25140;-75
2022/09/14 10:02:23;;;;;;;;;5.00;5.00;;;27.10;100754.36;;;;117080;1193;25488;-76
2022/09/14 10:05:09;;;;;;;;;7.00;4.00;;;27.09;100753.97;;;;117033;1193;24927;-74
2022/09/14 10:08:01;;;;;;;;;6.00;5.67;;;27.05;100749.45;;;;117119;1193;25145;-73
2022/09/14 10:10:32;;;;;;;;;8.75;5.25;;;27.01;100740.27;;;;117123;1192;25281;-73
2022/09/14 10:13:04;;;;;;;;;8.25;6.50;;;26.99;100746.15;;;;117089;1193;25048;-74
2022/09/14 10:15:35;;;;;;;;;5.00;5.00;;;26.96;100738.59;;;;117046;1193;25715;-74
2022/09/14 10:18:10;;;;;;;;;8.00;4.75;;;26.94;100734.45;;;;117044;1193;25474;-75
2022/09/14 10:20:42;;;;;;;;;2.75;2.75;;;26.93;100742.20;;;;117085;1191;25659;-74
2022/09/14 10:23:17;;;;;;;;;9.00;7.00;;;26.93;100736.39;;;;117042;1193;25790;-73
2022/09/14 10:25:50;;;;;;;;;7.67;4.00;;;26.92;100732.55;;;;117115;1193;25378;-74
2022/09/14 10:28:32;;;;;;;;;8.00;4.00;;;26.91;100728.48;;;;117001;1193;25512;-74
2022/09/14 10:31:07;;;;;;;;;5.75;5.00;;;26.92;100731.38;;;;117026;1192;25654;-74
2022/09/14 10:33:35;;;;;;;;;8.00;5.00;;;26.91;100725.40;;;;117048;1192;25144;-74
2022/09/14 10:36:33;;;;;;;;;7.67;5.67;;;26.91;100717.64;;;;117033;1193;25564;-74
2022/09/14 10:39:14;;;;;;;;;8.75;5.25;;;26.92;100712.27;;;;117006;1193;25784;-75
2022/09/14 10:41:59;;;;;;;;;7.50;6.00;;;26.95;100708.25;;;;117139;1192;24756;-75
2022/09/14 10:44:56;;;;;;;;;5.25;5.00;;;26.95;100709.97;;;;117124;1192;24893;-74
2022/09/14 10:47:39;;;;;;;;;4.75;4.75;;;26.93;100704.28;;;;117141;1192;24902;-75
2022/09/14 10:50:28;;;;;;;;;7.00;6.75;;;26.92;100707.84;;;;117039;1192;24848;-75
2022/09/14 10:53:05;;;;;;;;;7.00;5.50;;;26.89;100691.13;;;;117141;1193;24814;-75
2022/09/14 10:55:49;;;;;;;;;5.67;5.67;;;26.89;100684.55;;;;117120;1192;24885;-75
2022/09/14 10:58:39;;;;;;;;;7.75;6.75;;;26.87;100680.63;;;;117102;1192;24930;-75
2022/09/14 11:01:20;;;;;;;;;6.50;6.50;;;26.86;100678.09;;;;117143;1192;25772;-74
2022/09/14 11:04:23;;;;;;;;;4.33;4.33;;;26.86;100676.34;;;;117063;1193;25332;-75
2022/09/14 11:07:18;;;;;;;;;5.25;5.25;;;26.89;100670.33;;;;117066;1193;25560;-75
2022/09/14 11:09:52;;;;;;;;;7.00;5.50;;;26.88;100673.00;;;;117115;1193;25410;-74
2022/09/14 11:12:40;;;;;;;;;6.00;5.75;;;26.90;100673.21;;;;117087;1193;25396;-75
2022/09/14 11:15:36;;;;;;;;;7.25;5.50;;;26.91;100672.42;;;;117112;1192;25208;-75
2022/09/14 11:18:42;;;;;;;;;8.00;6.25;;;26.91;100660.96;;;;117120;1193;24787;-75
2022/09/14 11:21:19;;;;;;;;;8.00;5.50;;;26.92;100654.84;;;;116881;1192;25188;-75
2022/09/14 11:24:13;;;;;;;;;4.25;3.50;;;26.95;100651.96;;;;117096;1193;25301;-76
2022/09/14 11:26:45;;;;;;;;;10.50;6.00;;;26.93;100659.19;;;;117046;1193;25476;-74
2022/09/14 11:29:33;;;;;;;;;7.50;6.25;;;26.92;100654.77;;;;117053;1193;25296;-76
2022/09/14 11:32:06;;;;;;;;;4.00;4.00;;;26.91;100651.98;;;;117087;1192;25268;-75
2022/09/14 11:34:54;;;;;;;;;5.25;4.00;;;26.94;100645.02;;;;117139;1191;25134;-76
2022/09/14 11:37:33;;;;;;;;;3.00;3.00;;;26.95;100636.69;;;;117117;1193;25165;-76
2022/09/14 11:40:15;;;;;;;;;4.25;4.00;;;26.94;100630.13;;;;117125;1191;25079;-75
2022/09/14 11:43:09;;;;;;;;;5.33;5.33;;;26.94;100626.46;;;;117111;1193;24957;-76
2022/09/14 11:45:51;;;;;;;;;9.67;5.67;;;26.93;100635.14;;;;117097;1193;24970;-76
2022/09/14 11:48:38;;;;;;;;;3.50;3.50;;;26.90;100631.86;;;;117051;1193;24832;-76
2022/09/14 11:51:21;;;;;;;;;7.25;4.00;;;26.90;100629.99;;;;117070;1192;25327;-76
2022/09/14 11:53:50;;;;;;;;;5.00;5.00;;;26.89;100625.52;;;;117093;1191;25501;-76
2022/09/14 11:56:27;;;;;;;;;6.25;5.25;;;26.88;100635.91;;;;117126;1191;25517;-77
2022/09/14 11:59:04;;;;;;;;;7.50;5.00;;;26.87;100630.36;;;;117073;1193;24951;-76
2022/09/14 12:01:35;;;;;;;;;8.75;7.00;;;26.87;100621.52;;;;117066;1192;26494;-78
2022/09/14 12:04:05;;;;;;;;;7.75;4.50;;;26.87;100619.02;;;;117054;1193;25478;-75
2022/09/14 12:06:37;;;;;;;;;3.00;2.50;;;26.86;100619.05;;;;117029;1193;24846;-76
2022/09/14 12:09:15;;;;;;;;;5.25;3.00;;;26.85;100611.75;;;;117098;1192;25001;-75
2022/09/14 12:11:45;;;;;;;;;4.75;4.50;;;26.84;100621.16;;;;117121;1193;25263;-76
2022/09/14 12:14:22;;;;;;;;;3.50;2.75;;;26.84;100614.68;;;;117029;1193;25491;-75
2022/09/14 12:17:13;;;;;;;;;4.33;3.67;;;26.83;100614.55;;;;117045;1193;25476;-77
2022/09/14 12:20:27;;;;;;;;;5.75;5.00;;;26.86;100615.08;;;;117083;1193;24977;-76
2022/09/14 12:23:21;;;;;;;;;5.00;5.00;;;26.88;100613.05;;;;117095;1193;24944;-76
2022/09/14 12:25:54;;;;;;;;;3.75;3.75;;;26.85;100605.03;;;;117110;1193;24816;-77
2022/09/14 12:28:36;;;;;;;;;6.00;4.50;;;26.84;100606.33;;;;117047;1192;25188;-77